Time;durP1;ratioP1;P1;durP2;ratioP2;P2;SDS_P1;SDS_P2;PMS_P1;PMS_P2;Temp;Humidity;BMP_temperature;BMP_pressure;BME280_temperature;BME280_humidity;BME280_pressure;Samples;Min_cycle;Max_cycle;Signal;HPM_P1;HPM_P2
2021/05/10 00:00:49;;;;;;;3.80;1.17;;;;;;;17.17;42.80;95258.09;5066690;28;20093;-78
2021/05/10 00:03:16;;;;;;;2.43;0.93;;;;;;;17.13;43.05;95262.19;5064353;28;20035;-78
2021/05/10 00:05:42;;;;;;;3.33;1.10;;;;;;;17.06;43.08;95261.47;5053897;28;20672;-78
2021/05/10 00:08:08;;;;;;;4.07;1.23;;;;;;;17.09;43.12;95255.72;5052353;28;20039;-77
2021/05/10 00:10:35;;;;;;;4.00;1.37;;;;;;;17.00;43.87;95259.75;5053460;28;20028;-77
2021/05/10 00:13:02;;;;;;;1.47;0.83;;;;;;;16.96;43.40;95263.84;5069890;28;20025;-77
2021/05/10 00:15:29;;;;;;;2.23;1.13;;;;;;;16.88;43.85;95264.16;5062688;28;20372;-77
2021/05/10 00:18:12;;;;;;;1.83;1.20;;;;;;;16.77;44.07;95262.22;5059873;28;20040;-77
2021/05/10 00:20:39;;;;;;;;;;;;;;;16.75;44.09;95264.31;5062400;28;20032;-77
2021/05/10 00:23:05;;;;;;;3.90;1.30;;;;;;;16.77;43.63;95252.44;5078016;28;20281;-80
2021/05/10 00:25:31;;;;;;;1.50;0.70;;;;;;;16.77;43.92;95251.63;5063316;28;20478;-77
2021/05/10 00:27:57;;;;;;;2.67;1.17;;;;;;;16.71;44.41;95254.09;5057320;28;20029;-77
2021/05/10 00:30:24;;;;;;;3.57;1.00;;;;;;;16.72;43.94;95250.41;5067213;28;20029;-78
2021/05/10 00:32:50;;;;;;;3.90;1.20;;;;;;;16.66;44.34;95261.91;5058466;28;20020;-77
2021/05/10 00:35:16;;;;;;;2.70;1.00;;;;;;;16.63;44.27;95265.03;5057958;28;20032;-78
2021/05/10 00:37:43;;;;;;;2.57;1.03;;;;;;;16.49;44.98;95247.59;5067390;28;20012;-79
2021/05/10 00:40:12;;;;;;;3.30;1.20;;;;;;;16.48;44.96;95254.75;5065335;28;20020;-77
2021/05/10 00:42:39;;;;;;;3.60;1.43;;;;;;;16.50;44.40;95259.84;5053802;28;20033;-78
2021/05/10 00:45:06;;;;;;;3.30;1.27;;;;;;;16.45;44.23;95268.47;5078420;28;20037;-78
2021/05/10 00:47:32;;;;;;;3.93;1.10;;;;;;;16.47;44.20;95273.56;5072345;28;20371;-78
2021/05/10 00:49:58;;;;;;;3.50;1.10;;;;;;;16.37;44.44;95276.72;5054868;28;20054;-77
2021/05/10 00:52:23;;;;;;;3.00;1.23;;;;;;;16.34;44.57;95271.84;5053322;28;20063;-77
2021/05/10 00:54:50;;;;;;;5.10;1.10;;;;;;;16.34;44.46;95273.69;5050739;28;20017;-77
2021/05/10 00:57:17;;;;;;;2.60;1.00;;;;;;;16.33;44.51;95277.34;5058341;28;20025;-77
2021/05/10 00:59:43;;;;;;;4.07;0.97;;;;;;;16.29;44.75;95276.97;5061123;28;20058;-77
2021/05/10 01:02:09;;;;;;;4.73;1.13;;;;;;;16.33;43.96;95282.66;5058585;28;20120;-78
2021/05/10 01:04:34;;;;;;;2.07;1.07;;;;;;;16.28;44.24;95270.06;5057031;28;20036;-77
2021/05/10 01:07:00;;;;;;;3.20;1.30;;;;;;;16.22;44.77;95266.44;5063800;28;20115;-77
2021/05/10 01:09:26;;;;;;;2.77;1.10;;;;;;;16.20;44.58;95270.34;5050456;28;20029;-78
2021/05/10 01:11:52;;;;;;;1.97;1.30;;;;;;;16.20;44.23;95271.16;5058173;28;20024;-77
2021/05/10 01:14:18;;;;;;;3.80;1.47;;;;;;;16.11;45.44;95272.44;5050443;28;20104;-78
2021/05/10 01:16:44;;;;;;;4.13;1.20;;;;;;;16.08;44.92;95270.22;5052689;28;20110;-77
2021/05/10 01:19:11;;;;;;;2.50;1.10;;;;;;;16.02;45.57;95268.44;5073797;28;20032;-77
2021/05/10 01:21:36;;;;;;;4.83;1.30;;;;;;;16.01;45.37;95269.47;5055207;28;20039;-77
2021/05/10 01:24:03;;;;;;;2.30;1.10;;;;;;;15.94;45.93;95266.88;5058709;28;20009;-77
2021/05/10 01:26:28;;;;;;;4.57;1.13;;;;;;;15.89;45.39;95257.94;5050212;28;20044;-77
2021/05/10 01:28:54;;;;;;;3.33;1.27;;;;;;;16.01;45.28;95270.28;5055039;28;20043;-77
2021/05/10 01:31:20;;;;;;;4.40;1.20;;;;;;;15.97;45.21;95260.34;5052608;28;20039;-77
2021/05/10 01:33:46;;;;;;;3.70;1.57;;;;;;;15.98;44.96;95260.09;5058596;28;20104;-77
2021/05/10 01:36:12;;;;;;;7.93;2.00;;;;;;;16.01;44.94;95253.56;5058208;28;20036;-77
2021/05/10 01:38:38;;;;;;;4.57;2.10;;;;;;;15.98;44.21;95249.50;5049728;28;20041;-77
2021/05/10 01:41:04;;;;;;;3.23;1.50;;;;;;;15.91;44.98;95253.25;5048445;28;20116;-78
2021/05/10 01:43:30;;;;;;;3.63;1.50;;;;;;;15.96;44.36;95250.75;5083178;28;20764;-77
2021/05/10 01:45:56;;;;;;;3.80;1.10;;;;;;;15.93;44.46;95245.91;5059450;28;20077;-77
2021/05/10 01:48:21;;;;;;;3.20;1.37;;;;;;;15.93;44.32;95248.53;5053404;28;20028;-78
2021/05/10 01:50:48;;;;;;;3.27;1.20;;;;;;;15.92;44.14;95244.25;5058991;28;20021;-77
2021/05/10 01:53:15;;;;;;;3.70;1.07;;;;;;;15.93;44.35;95259.16;5065761;28;20023;-77
2021/05/10 01:55:41;;;;;;;1.97;1.10;;;;;;;15.93;43.88;95256.50;5058040;28;20029;-77
2021/05/10 01:58:08;;;;;;;2.37;0.97;;;;;;;15.87;45.22;95258.16;5056898;28;20121;-77
2021/05/10 02:00:40;;;;;;;5.07;1.50;;;;;;;15.72;45.35;95257.66;5052876;28;20490;-78
2021/05/10 02:03:14;;;;;;;2.37;1.00;;;;;;;15.74;44.94;95255.63;5053259;28;20064;-77
2021/05/10 02:05:41;;;;;;;3.07;1.50;;;;;;;15.66;45.49;95256.69;5060798;28;20035;-77
2021/05/10 02:08:08;;;;;;;3.30;1.40;;;;;;;15.52;45.76;95247.16;5054166;28;20485;-77
2021/05/10 02:10:36;;;;;;;3.17;1.03;;;;;;;15.52;45.57;95249.81;5069828;28;20032;-77
2021/05/10 02:13:07;;;;;;;2.90;1.43;;;;;;;15.49;45.92;95244.94;5061819;28;20028;-77
2021/05/10 02:15:47;;;;;;;3.47;1.10;;;;;;;15.44;45.79;95253.53;5055120;28;20057;-77
2021/05/10 02:18:17;;;;;;;2.87;1.20;;;;;;;15.44;45.78;95247.44;5047640;28;20390;-78
2021/05/10 02:20:45;;;;;;;2.30;1.20;;;;;;;15.42;45.81;95242.34;5052515;28;20032;-77
2021/05/10 02:23:16;;;;;;;3.33;1.20;;;;;;;15.38;45.93;95241.13;5056896;28;20627;-78
2021/05/10 02:25:48;;;;;;;4.67;1.30;;;;;;;15.36;46.19;95240.56;5064064;28;20107;-77
2021/05/10 02:28:16;;;;;;;3.87;1.27;;;;;;;15.42;45.73;95238.88;5057107;28;20060;-78
2021/05/10 02:30:43;;;;;;;2.53;1.17;;;;;;;15.44;46.11;95239.47;5063475;28;20492;-78
2021/05/10 02:33:11;;;;;;;6.10;1.20;;;;;;;15.48;45.88;95240.66;5051053;28;20108;-77
2021/05/10 02:35:37;;;;;;;3.60;1.37;;;;;;;15.51;45.07;95241.06;5072658;28;20036;-77
2021/05/10 02:38:03;;;;;;;2.00;1.10;;;;;;;15.50;45.55;95238.63;5064817;28;20469;-77
2021/05/10 02:40:29;;;;;;;4.27;1.80;;;;;;;15.46;45.78;95230.31;5064804;28;20037;-77
2021/05/10 02:42:55;;;;;;;4.13;0.90;;;;;;;15.54;45.36;95237.97;5062058;28;20028;-77
2021/05/10 02:45:21;;;;;;;2.47;1.13;;;;;;;15.65;44.97;95233.00;5053849;28;20025;-77
2021/05/10 02:47:47;;;;;;;4.10;1.57;;;;;;;15.72;44.78;95231.16;5038877;28;20067;-77
2021/05/10 02:50:17;;;;;;;4.30;1.40;;;;;;;15.81;44.47;95237.81;5052084;28;20033;-79
2021/05/10 02:52:43;;;;;;;2.10;1.10;;;;;;;15.95;43.98;95243.81;5063442;28;20025;-76
2021/05/10 02:55:10;;;;;;;3.33;1.40;;;;;;;16.00;43.67;95238.69;5055524;28;20028;-77
2021/05/10 02:57:36;;;;;;;4.47;1.33;;;;;;;15.94;44.00;95234.25;5064780;28;20032;-77
2021/05/10 03:00:07;;;;;;;2.33;1.20;;;;;;;15.81;44.89;95237.00;5060503;28;20056;-77
2021/05/10 03:02:33;;;;;;;4.10;1.20;;;;;;;15.78;44.94;95231.09;5052399;28;20033;-77
2021/05/10 03:04:59;;;;;;;3.53;1.37;;;;;;;15.85;44.68;95233.69;5058696;28;20101;-77
2021/05/10 03:07:25;;;;;;;3.53;1.10;;;;;;;15.77;44.86;95234.78;5067709;28;20115;-78
2021/05/10 03:09:50;;;;;;;2.70;1.33;;;;;;;15.75;44.71;95241.31;5066488;28;20052;-78
2021/05/10 03:12:16;;;;;;;5.00;1.20;;;;;;;15.83;44.18;95234.94;5068315;28;20406;-78
2021/05/10 03:14:42;;;;;;;3.10;1.07;;;;;;;15.81;44.62;95235.16;5064739;28;20051;-78
2021/05/10 03:17:07;;;;;;;2.93;1.30;;;;;;;15.92;44.03;95238.94;5064676;28;20029;-78
2021/05/10 03:19:33;;;;;;;2.17;1.23;;;;;;;15.91;44.45;95240.78;5054359;28;20129;-78
2021/05/10 03:21:59;;;;;;;2.83;1.23;;;;;;;16.05;43.50;95246.00;5051886;28;20067;-78
2021/05/10 03:24:24;;;;;;;3.13;1.30;;;;;;;16.13;43.34;95243.03;5058071;28;20016;-78
2021/05/10 03:26:50;;;;;;;2.17;0.97;;;;;;;16.20;42.95;95241.97;5045820;28;20037;-78
2021/05/10 03:29:16;;;;;;;2.20;1.07;;;;;;;16.37;42.93;95244.88;5059997;28;20089;-78
2021/05/10 03:31:42;;;;;;;3.23;1.53;;;;;;;16.54;42.21;95241.66;5056734;28;20029;-78
2021/05/10 03:34:07;;;;;;;3.93;1.40;;;;;;;16.55;42.31;95233.44;5066458;28;20024;-78
2021/05/10 03:36:33;;;;;;;7.70;1.67;;;;;;;16.55;42.47;95233.44;5076920;28;20025;-78
2021/05/10 03:39:01;;;;;;;4.67;1.30;;;;;;;16.50;42.53;95214.75;5059947;28;20021;-78
2021/05/10 03:41:27;;;;;;;5.40;1.70;;;;;;;16.44;43.37;95215.63;5068825;28;20028;-78
2021/05/10 03:43:53;;;;;;;3.23;1.70;;;;;;;16.26;44.04;95203.97;5059956;28;20028;-79
2021/05/10 03:46:19;;;;;;;4.93;1.50;;;;;;;16.23;44.25;95222.13;5055629;28;20033;-78
2021/05/10 03:48:44;;;;;;;4.10;1.67;;;;;;;16.28;43.65;95232.91;5071290;28;20401;-78
2021/05/10 03:51:10;;;;;;;4.53;1.00;;;;;;;16.44;43.43;95232.34;5063943;28;20036;-76
2021/05/10 03:53:36;;;;;;;4.53;1.30;;;;;;;16.38;43.41;95238.53;5054214;28;20054;-78
2021/05/10 03:56:02;;;;;;;3.20;1.13;;;;;;;16.34;44.19;95245.31;5061000;28;20032;-78
2021/05/10 03:58:27;;;;;;;3.00;1.33;;;;;;;16.18;44.44;95238.72;5058227;28;20063;-78
2021/05/10 04:00:53;;;;;;;2.97;1.50;;;;;;;16.19;43.96;95237.69;5056388;28;21714;-78
2021/05/10 04:03:21;;;;;;;2.80;1.27;;;;;;;16.22;44.23;95241.75;5071527;28;20512;-78
2021/05/10 04:13:40;;;;;;;3.90;1.30;;;;;;;15.86;45.38;95250.41;5075383;28;20045;-79
2021/05/10 04:16:07;;;;;;;2.83;1.40;;;;;;;15.81;46.45;95255.56;5059197;28;20047;-79
2021/05/10 04:18:33;;;;;;;4.07;1.37;;;;;;;15.90;45.84;95251.63;5056905;28;20116;-78
2021/05/10 04:20:59;;;;;;;3.57;1.37;;;;;;;16.20;45.86;95249.13;5070251;28;20033;-78
2021/05/10 04:23:26;;;;;;;6.43;1.43;;;;;;;16.47;44.56;95252.34;5059216;28;20017;-78
2021/05/10 04:25:53;;;;;;;2.03;1.07;;;;;;;16.72;44.26;95254.91;5059477;28;20036;-78
2021/05/10 04:28:20;;;;;;;5.53;1.23;;;;;;;16.99;43.48;95271.38;5064288;28;20017;-78
2021/05/10 04:30:47;;;;;;;4.83;1.30;;;;;;;17.07;43.79;95281.72;5048813;28;20051;-77
2021/05/10 04:33:12;;;;;;;3.47;1.33;;;;;;;17.06;44.05;95288.03;5053904;28;20054;-78
2021/05/10 04:35:39;;;;;;;3.90;1.47;;;;;;;17.17;43.39;95287.31;5063439;28;20036;-78
2021/05/10 04:38:10;;;;;;;3.73;1.37;;;;;;;17.22;43.36;95302.56;5054862;28;20067;-78
2021/05/10 04:40:37;;;;;;;3.80;1.17;;;;;;;17.22;43.23;95296.44;5057240;28;20048;-78
2021/05/10 04:43:05;;;;;;;2.97;1.40;;;;;;;17.22;43.29;95294.59;5048585;28;20035;-78
2021/05/10 04:45:30;;;;;;;3.03;1.33;;;;;;;17.22;43.41;95278.66;5069417;28;20095;-78
2021/05/10 04:47:56;;;;;;;2.87;1.20;;;;;;;17.24;43.57;95275.78;5062833;28;20025;-78
2021/05/10 04:50:23;;;;;;;7.60;1.77;;;;;;;17.36;43.24;95282.75;5052801;28;20056;-77
2021/05/10 04:52:49;;;;;;;5.53;1.73;;;;;;;17.48;43.16;95279.34;5065361;28;20061;-78
2021/05/10 04:55:15;;;;;;;6.97;1.47;;;;;;;17.51;43.11;95277.06;5055862;28;20087;-78
2021/05/10 04:57:41;;;;;;;5.70;2.00;;;;;;;17.59;42.54;95287.34;5060654;28;20111;-78
2021/05/10 05:00:12;;;;;;;3.67;1.80;;;;;;;17.70;42.19;95287.63;5060356;28;20074;-79
2021/05/10 05:02:38;;;;;;;3.20;1.40;;;;;;;17.70;42.36;95287.63;5054953;28;20039;-78
2021/05/10 05:05:06;;;;;;;3.20;1.30;;;;;;;17.71;42.94;95283.94;5059617;28;20028;-78
2021/05/10 05:07:31;;;;;;;4.20;1.33;;;;;;;17.66;43.70;95285.41;5054748;28;20044;-78
2021/05/10 05:09:57;;;;;;;5.10;1.20;;;;;;;17.55;44.69;95286.19;5075385;28;20039;-78
2021/05/10 05:12:23;;;;;;;4.28;1.52;;;;;;;17.54;45.03;95284.59;5030552;28;20744;-78
2021/05/10 05:14:49;;;;;;;3.00;1.48;;;;;;;17.56;44.78;95290.47;5057978;28;20024;-78
2021/05/10 05:17:14;;;;;;;4.17;1.13;;;;;;;17.64;44.62;95298.13;5052934;28;20031;-78
2021/05/10 05:19:40;;;;;;;3.77;1.20;;;;;;;17.62;44.85;95297.53;5062939;28;20119;-78
2021/05/10 05:22:07;;;;;;;7.07;1.53;;;;;;;17.66;44.74;95295.25;5056859;28;20032;-78
2021/05/10 05:24:33;;;;;;;4.25;1.33;;;;;;;17.76;44.49;95306.16;5046964;28;20032;-78
2021/05/10 05:26:59;;;;;;;2.83;1.10;;;;;;;17.82;44.27;95299.16;5063728;28;20060;-78
2021/05/10 05:29:25;;;;;;;2.67;1.20;;;;;;;17.80;44.41;95306.53;5067331;28;20032;-78
2021/05/10 05:31:53;;;;;;;6.17;1.43;;;;;;;17.81;44.48;95302.84;5066646;28;20044;-78
2021/05/10 05:34:19;;;;;;;9.03;2.33;;;;;;;17.87;44.60;95301.91;5056617;28;20036;-78
2021/05/10 05:36:45;;;;;;;8.88;3.47;;;;;;;17.87;45.33;95316.06;5057838;28;20036;-78
2021/05/10 05:39:11;;;;;;;3.70;1.10;;;;;;;18.00;44.61;95303.56;5046562;28;20169;-78
2021/05/10 05:41:37;;;;;;;15.30;10.40;;;;;;;18.06;44.83;95300.81;5063378;28;20036;-78
2021/05/10 05:44:04;;;;;;;13.60;5.38;;;;;;;18.16;44.53;95294.13;5060637;28;20508;-78
2021/05/10 05:46:45;;;;;;;7.97;3.50;;;;;;;18.20;44.51;95295.28;5054793;28;20452;-78
2021/05/10 05:49:11;;;;;;;7.13;2.40;;;;;;;18.27;45.42;95291.47;5059679;28;20033;-78
2021/05/10 05:51:37;;;;;;;2.92;1.30;;;;;;;18.43;44.23;95291.81;5059665;28;20017;-78
2021/05/10 05:54:03;;;;;;;6.10;1.70;;;;;;;18.52;44.44;95296.56;5063802;28;20135;-78
2021/05/10 05:56:30;;;;;;;5.32;1.40;;;;;;;18.52;45.04;95298.44;5070740;28;20108;-78
2021/05/10 05:58:56;;;;;;;5.57;1.60;;;;;;;18.55;46.06;95293.47;5072359;28;20029;-78
2021/05/10 06:01:24;;;;;;;4.97;1.50;;;;;;;18.64;46.82;95309.88;5068457;28;20331;-78
2021/05/10 06:03:51;;;;;;;7.85;1.77;;;;;;;19.08;45.02;95297.81;5055627;28;20021;-78
2021/05/10 06:06:16;;;;;;;4.18;1.40;;;;;;;18.98;45.75;95307.44;5060998;28;20056;-78
2021/05/10 06:08:42;;;;;;;6.53;1.50;;;;;;;19.20;43.78;95303.13;5064737;28;20047;-78
2021/05/10 06:11:09;;;;;;;2.97;1.40;;;;;;;19.46;43.85;95311.63;5064066;28;20320;-78
2021/05/10 06:13:36;;;;;;;5.20;1.92;;;;;;;19.79;43.58;95294.94;5061134;28;20040;-78
2021/05/10 06:16:02;;;;;;;3.17;1.48;;;;;;;19.92;44.23;95305.31;5061526;28;20397;-78
2021/05/10 06:18:28;;;;;;;3.45;1.33;;;;;;;20.00;44.39;95315.56;5072595;28;20036;-78
2021/05/10 06:20:54;;;;;;;5.30;1.83;;;;;;;19.89;43.72;95304.97;5053512;28;20025;-78
2021/05/10 06:23:19;;;;;;;2.90;1.50;;;;;;;19.83;42.95;95312.06;5057763;28;20029;-78
2021/05/10 06:25:45;;;;;;;2.78;1.42;;;;;;;19.97;42.39;95318.72;5064879;28;20035;-78
2021/05/10 06:28:11;;;;;;;3.97;1.70;;;;;;;19.83;42.88;95329.94;5057166;28;20033;-78
2021/05/10 06:30:36;;;;;;;4.38;1.58;;;;;;;20.02;42.32;95332.16;5046638;28;20067;-78
2021/05/10 06:33:02;;;;;;;4.75;1.77;;;;;;;20.22;41.69;95326.38;5077250;28;20060;-78
2021/05/10 06:35:28;;;;;;;15.80;7.65;;;;;;;20.27;42.18;95322.16;5067788;28;20033;-79
2021/05/10 06:37:53;;;;;;;6.40;2.00;;;;;;;20.31;41.74;95342.78;5061562;28;20036;-78
2021/05/10 06:40:19;;;;;;;4.00;1.25;;;;;;;20.74;40.81;95338.69;5067647;28;20017;-78
2021/05/10 06:42:45;;;;;;;5.43;1.90;;;;;;;20.63;41.37;95358.28;5060462;28;20234;-78
2021/05/10 06:45:10;;;;;;;4.38;1.80;;;;;;;20.73;42.54;95371.81;5057833;28;20028;-77
2021/05/10 06:47:42;;;;;;;8.38;2.70;;;;;;;21.07;42.51;95377.09;5064324;28;20041;-78
2021/05/10 06:50:08;;;;;;;11.23;2.85;;;;;;;20.99;42.35;95378.31;5058109;28;20045;-78
2021/05/10 06:52:34;;;;;;;6.97;2.08;;;;;;;21.06;41.77;95372.78;5059504;28;20021;-78
2021/05/10 06:55:01;;;;;;;6.15;1.85;;;;;;;21.27;41.98;95369.38;5058955;28;20568;-78
2021/05/10 06:57:26;;;;;;;2.83;1.17;;;;;;;21.39;40.55;95366.59;5059957;28;20056;-77
2021/05/10 06:59:52;;;;;;;2.75;1.30;;;;;;;21.54;38.98;95357.97;5091861;28;20044;-78
2021/05/10 07:02:20;;;;;;;2.60;1.20;;;;;;;21.82;37.39;95355.06;5067089;28;20079;-77
2021/05/10 07:04:46;;;;;;;2.92;1.33;;;;;;;22.27;36.75;95350.47;5048134;28;20144;-78
2021/05/10 07:07:12;;;;;;;5.45;1.45;;;;;;;23.24;36.17;95337.75;5055082;28;20754;-78
2021/05/10 07:09:38;;;;;;;10.00;4.82;;;;;;;23.78;36.11;95332.09;5057334;28;20029;-78
2021/05/10 07:12:04;;;;;;;4.78;1.67;;;;;;;23.97;37.36;95329.69;5073767;28;20028;-79
2021/05/10 07:14:31;;;;;;;3.13;1.65;;;;;;;24.31;36.21;95323.84;5045211;28;20032;-78
2021/05/10 07:16:57;;;;;;;5.00;1.60;;;;;;;24.15;36.70;95323.03;5059861;28;20054;-78
2021/05/10 07:19:23;;;;;;;4.22;1.42;;;;;;;23.47;37.50;95325.75;5058275;28;20641;-79
2021/05/10 07:21:49;;;;;;;3.55;1.50;;;;;;;23.32;37.46;95326.53;5056174;28;20029;-79
2021/05/10 07:24:15;;;;;;;2.75;1.52;;;;;;;23.20;38.24;95328.59;5070921;28;20182;-79
2021/05/10 07:26:41;;;;;;;4.45;1.50;;;;;;;23.29;38.91;95343.94;5060373;28;20032;-79
2021/05/10 07:29:07;;;;;;;3.17;1.25;;;;;;;23.54;37.76;95350.50;5055115;28;20029;-79
2021/05/10 07:31:33;;;;;;;5.47;1.98;;;;;;;23.51;37.43;95342.97;5057688;28;20167;-79
2021/05/10 07:33:59;;;;;;;6.45;2.00;;;;;;;23.49;37.82;95362.00;5067828;28;20269;-78
2021/05/10 07:36:24;;;;;;;5.38;1.52;;;;;;;23.63;37.74;95367.69;5077704;28;20040;-78
2021/05/10 07:38:50;;;;;;;4.22;1.50;;;;;;;23.94;37.08;95367.81;5070460;28;20032;-79
2021/05/10 07:41:16;;;;;;;4.22;1.50;;;;;;;23.59;38.22;95380.03;5047237;28;20030;-78
2021/05/10 07:43:42;;;;;;;5.85;2.20;;;;;;;24.19;38.03;95378.63;5057877;28;20033;-78
2021/05/10 07:46:08;;;;;;;6.50;2.55;;;;;;;24.43;36.67;95392.41;5055353;28;20021;-79
2021/05/10 07:48:34;;;;;;;4.45;1.38;;;;;;;23.87;39.02;95411.03;5060742;28;20033;-79
2021/05/10 07:50:59;;;;;;;3.38;1.55;;;;;;;23.90;40.21;95410.50;5055083;28;20434;-78
2021/05/10 07:53:25;;;;;;;3.38;1.50;;;;;;;23.92;36.50;95415.63;5056484;28;20759;-78
2021/05/10 07:55:53;;;;;;;2.97;1.00;;;;;;;23.85;37.37;95421.25;5058274;28;20032;-78
2021/05/10 07:58:26;;;;;;;2.67;1.27;;;;;;;23.57;38.66;95414.38;5062649;28;20031;-78
2021/05/10 08:00:57;;;;;;;;;;;;;;;23.82;37.75;95402.19;5065866;28;20482;-78
2021/05/10 08:03:26;;;;;;;7.10;1.33;;;;;;;24.14;36.79;95392.03;5046132;28;19984;-78
2021/05/10 08:05:52;;;;;;;7.93;1.42;;;;;;;24.35;35.62;95384.06;5064462;28;20100;-77
2021/05/10 08:08:22;;;;;;;3.83;1.30;;;;;;;24.59;35.76;95389.75;5060414;28;20128;-78
2021/05/10 08:10:48;;;;;;;3.80;1.40;;;;;;;26.03;33.45;95391.88;5076564;28;20032;-78
2021/05/10 08:13:14;;;;;;;6.35;1.42;;;;;;;26.37;32.22;95391.16;5072972;28;20032;-78
2021/05/10 08:15:40;;;;;;;6.05;1.48;;;;;;;26.23;32.58;95390.16;5074614;28;20060;-79
2021/05/10 08:18:06;;;;;;;2.92;1.30;;;;;;;25.81;30.82;95392.25;5054906;28;20016;-79
2021/05/10 08:20:34;;;;;;;3.08;1.30;;;;;;;25.94;32.75;95393.53;5053213;28;20116;-77
2021/05/10 08:22:59;;;;;;;2.45;1.15;;;;;;;25.63;30.85;95392.84;5059747;28;20037;-77
2021/05/10 08:25:25;;;;;;;8.70;1.92;;;;;;;26.58;29.80;95391.84;5055199;28;20036;-77
2021/05/10 08:27:51;;;;;;;10.68;2.20;;;;;;;26.71;29.59;95396.59;5052247;28;20037;-77
2021/05/10 08:30:17;;;;;;;4.25;1.42;;;;;;;26.95;30.19;95393.94;5051647;28;20037;-78
2021/05/10 08:32:43;;;;;;;2.75;1.20;;;;;;;26.74;30.19;95387.13;5048916;28;20025;-78
2021/05/10 08:35:10;;;;;;;6.28;1.30;;;;;;;27.29;30.05;95389.63;5056615;28;20107;-78
2021/05/10 08:37:37;;;;;;;4.65;1.30;;;;;;;27.31;29.92;95399.06;5053544;28;20089;-78
2021/05/10 08:40:03;;;;;;;4.65;1.35;;;;;;;27.43;28.38;95407.59;5066216;28;20062;-77
2021/05/10 08:42:29;;;;;;;3.45;1.35;;;;;;;28.09;27.35;95414.13;5059254;28;20028;-77
2021/05/10 08:44:55;;;;;;;2.95;1.25;;;;;;;27.62;28.97;95423.84;5068206;28;20028;-78
2021/05/10 08:47:22;;;;;;;3.60;1.48;;;;;;;27.71;28.23;95424.81;5054991;28;20053;-76
2021/05/10 08:49:48;;;;;;;9.13;2.45;;;;;;;27.69;28.67;95428.91;5058853;28;20029;-79
2021/05/10 08:52:15;;;;;;;5.07;1.60;;;;;;;28.54;28.45;95417.31;5069896;28;20020;-77
2021/05/10 08:54:41;;;;;;;4.68;1.30;;;;;;;28.46;27.09;95417.16;5061328;28;20056;-77
2021/05/10 08:57:06;;;;;;;7.75;2.00;;;;;;;27.89;27.55;95404.38;5047311;28;20032;-78
2021/05/10 08:59:32;;;;;;;4.43;1.42;;;;;;;28.45;26.33;95402.03;5070019;28;20102;-78
2021/05/10 09:02:00;;;;;;;4.03;1.85;;;;;;;28.53;25.85;95388.66;5065560;28;20025;-78
2021/05/10 09:04:37;;;;;;;3.72;1.30;;;;;;;29.65;25.30;95388.69;5049351;28;20087;-78
2021/05/10 09:07:16;;;;;;;3.92;1.40;;;;;;;29.10;26.08;95393.97;5055657;28;20468;-78
2021/05/10 09:09:59;;;;;;;2.75;1.42;;;;;;;29.56;24.52;95382.31;5050289;28;20033;-78
2021/05/10 09:12:55;;;;;;;4.80;1.17;;;;;;;29.35;23.56;95374.59;5050530;28;20084;-78
2021/05/10 09:15:27;;;;;;;5.18;1.55;;;;;;;30.48;22.45;95372.28;5043727;28;20486;-77
2021/05/10 09:17:55;;;;;;;2.78;1.30;;;;;;;30.08;23.18;95382.94;5045406;28;20025;-78
2021/05/10 09:20:25;;;;;;;4.57;1.33;;;;;;;30.80;22.32;95384.84;5052838;28;20527;-79
2021/05/10 09:22:58;;;;;;;2.88;1.10;;;;;;;30.25;23.26;95380.41;5050819;28;20029;-78
2021/05/10 09:25:35;;;;;;;2.70;1.55;;;;;;;30.89;22.41;95374.88;5047841;28;20033;-79
2021/05/10 09:28:22;;;;;;;4.95;1.23;;;;;;;31.20;22.41;95372.16;5063565;28;20085;-78
2021/05/10 09:30:48;;;;;;;2.70;1.15;;;;;;;31.47;22.29;95381.28;5048219;28;20028;-78
2021/05/10 09:33:25;;;;;;;3.70;1.35;;;;;;;31.01;22.04;95385.16;5031819;28;20037;-79
2021/05/10 09:35:59;;;;;;;3.42;1.35;;;;;;;31.73;21.17;95386.81;5058042;28;20064;-79
2021/05/10 09:38:30;;;;;;;2.33;1.30;;;;;;;31.69;21.44;95389.38;5048404;28;20047;-80
2021/05/10 09:41:00;;;;;;;3.80;1.77;;;;;;;31.08;23.42;95390.94;5058830;28;20462;-80
2021/05/10 09:43:33;;;;;;;5.30;1.83;;;;;;;31.87;21.79;95386.69;5051736;28;20530;-79
2021/05/10 09:46:07;;;;;;;2.55;1.23;;;;;;;31.59;23.52;95380.66;5072848;28;20036;-80
2021/05/10 09:48:36;;;;;;;3.13;1.60;;;;;;;31.36;23.83;95391.63;5055321;28;20041;-81
2021/05/10 09:51:13;;;;;;;3.95;1.67;;;;;;;32.73;21.84;95380.63;5054007;28;20032;-81
2021/05/10 09:53:47;;;;;;;2.70;1.60;;;;;;;32.76;21.48;95390.03;5049209;28;20029;-79
2021/05/10 09:56:29;;;;;;;2.58;1.73;;;;;;;31.54;23.71;95387.06;5056175;28;20143;-80
2021/05/10 09:59:00;;;;;;;3.58;1.58;;;;;;;32.62;22.49;95382.84;5048387;28;20116;-79
2021/05/10 10:01:38;;;;;;;3.47;1.30;;;;;;;31.51;23.63;95386.88;5055944;28;20494;-80
2021/05/10 10:04:04;;;;;;;4.82;1.65;;;;;;;32.14;23.31;95388.38;5060119;28;20043;-79
2021/05/10 10:06:30;;;;;;;2.20;1.30;;;;;;;31.10;24.04;95394.16;5056300;28;20029;-79
2021/05/10 10:08:56;;;;;;;3.17;1.48;;;;;;;31.76;23.90;95394.34;5046618;28;20375;-79
2021/05/10 10:11:24;;;;;;;2.72;1.45;;;;;;;32.15;23.04;95389.97;5052300;28;20017;-79
2021/05/10 10:13:55;;;;;;;2.75;1.40;;;;;;;30.97;24.65;95401.25;5048839;28;20044;-81
2021/05/10 10:16:23;;;;;;;4.95;1.40;;;;;;;31.37;23.14;95398.66;5049458;28;20100;-79
2021/05/10 10:18:50;;;;;;;4.50;1.65;;;;;;;32.29;23.14;95395.28;5048774;28;20077;-80
2021/05/10 10:21:19;;;;;;;2.67;1.40;;;;;;;31.75;24.81;95402.81;5051238;28;20357;-80
2021/05/10 10:23:59;;;;;;;3.67;1.73;;;;;;;30.81;25.60;95408.16;5057828;28;20021;-80
2021/05/10 10:26:26;;;;;;;3.75;1.40;;;;;;;30.80;26.38;95416.63;5054241;28;20283;-80
2021/05/10 10:28:52;;;;;;;3.03;1.77;;;;;;;30.82;26.66;95427.97;5058891;28;20025;-80
2021/05/10 10:31:20;;;;;;;7.63;1.60;;;;;;;30.77;26.04;95432.41;5051350;28;20032;-79
2021/05/10 10:33:58;;;;;;;3.90;1.65;;;;;;;30.42;27.67;95442.16;5051971;28;20486;-79
2021/05/10 10:36:36;;;;;;;5.93;1.50;;;;;;;30.84;27.15;95444.75;5050380;28;20137;-80
2021/05/10 10:39:20;;;;;;;3.85;1.73;;;;;;;31.14;26.49;95445.94;5047093;28;20035;-79
2021/05/10 10:41:59;;;;;;;3.75;1.67;;;;;;;31.52;25.86;95451.78;5056392;28;20028;-80
2021/05/10 10:44:45;;;;;;;7.15;1.60;;;;;;;30.71;26.84;95449.09;5054428;28;20033;-79
2021/05/10 10:47:17;;;;;;;5.28;1.80;;;;;;;30.71;27.19;95452.59;5050990;28;20040;-80
2021/05/10 10:49:46;;;;;;;4.38;1.60;;;;;;;30.77;27.37;95456.03;5057311;28;20290;-80
2021/05/10 10:52:16;;;;;;;3.20;1.55;;;;;;;31.04;26.78;95455.13;5059171;28;20021;-79
2021/05/10 10:54:42;;;;;;;7.97;1.77;;;;;;;29.30;28.54;95461.31;5055613;28;20063;-81
2021/05/10 10:57:08;;;;;;;6.03;1.85;;;;;;;30.27;27.82;95459.53;5051972;28;20099;-82
2021/05/10 10:59:39;;;;;;;5.93;1.60;;;;;;;30.38;28.13;95462.03;5053994;28;20028;-83
2021/05/10 11:02:16;;;;;;;5.50;1.90;;;;;;;30.26;27.72;95457.16;5055433;28;20448;-82
2021/05/10 11:04:42;;;;;;;5.68;2.00;;;;;;;29.54;30.30;95447.66;5054642;28;20458;-81
2021/05/10 11:07:09;;;;;;;5.78;1.98;;;;;;;29.03;29.94;95477.50;5053327;28;20032;-82
2021/05/10 11:09:49;;;;;;;6.82;1.83;;;;;;;28.70;30.99;95485.50;5063759;28;20049;-82
2021/05/10 11:12:45;;;;;;;5.90;2.05;;;;;;;29.23;30.31;95474.44;5056930;28;20025;-81
2021/05/10 11:15:12;;;;;;;4.50;1.80;;;;;;;29.47;29.56;95479.72;5063683;28;20114;-80
2021/05/10 11:17:54;;;;;;;5.88;1.77;;;;;;;28.62;31.47;95475.38;5057491;28;20028;-81
2021/05/10 11:20:36;;;;;;;4.25;1.92;;;;;;;27.23;33.20;95475.25;5056930;28;20032;-81
2021/05/10 11:23:32;;;;;;;3.47;1.90;;;;;;;27.56;33.64;95464.69;5074116;28;20092;-80
2021/05/10 11:26:03;;;;;;;6.00;1.83;;;;;;;27.45;33.59;95475.59;5055577;28;20037;-80
2021/05/10 11:28:28;;;;;;;5.78;2.10;;;;;;;27.21;34.30;95475.53;5065015;28;20061;-80
2021/05/10 11:30:55;;;;;;;6.90;1.73;;;;;;;27.44;33.34;95484.78;5057713;28;20044;-81
2021/05/10 11:33:52;;;;;;;4.40;2.13;;;;;;;27.78;32.75;95492.03;5063498;28;20048;-82
2021/05/10 11:36:27;;;;;;;4.35;1.98;;;;;;;27.04;34.06;95500.22;5057465;28;20086;-80
2021/05/10 11:39:16;;;;;;;8.55;2.00;;;;;;;26.98;34.55;95504.03;5056170;28;20032;-82
2021/05/10 11:41:44;;;;;;;6.20;1.95;;;;;;;27.08;34.97;95511.25;5063711;28;20684;-82
2021/05/10 11:44:19;;;;;;;5.60;2.97;;;;;;;26.64;34.34;95513.97;5057135;28;20474;-78
2021/05/10 11:46:50;;;;;;;10.18;3.90;;;;;;;26.83;34.92;95520.34;5063775;28;20024;-80